sensor_id;sensor_type;location;lat;lon;timestamp;P1;durP1;ratioP1;P2;durP2;ratioP2
45316;SDS011;31053;55.870;37.592;2023-11-19T00:02:32;18.52;;;6.78;;
45316;SDS011;31053;55.870;37.592;2023-11-19T00:05:36;18.30;;;6.10;;
45316;SDS011;31053;55.870;37.592;2023-11-19T00:08:41;17.48;;;6.95;;
45316;SDS011;31053;55.870;37.592;2023-11-19T00:11:47;20.65;;;7.05;;
45316;SDS011;31053;55.870;37.592;2023-11-19T00:14:52;17.98;;;5.90;;
45316;SDS011;31053;55.870;37.592;2023-11-19T00:17:57;15.45;;;6.10;;
45316;SDS011;31053;55.870;37.592;2023-11-19T00:21:01;13.90;;;5.50;;
45316;SDS011;31053;55.870;37.592;2023-11-19T00:24:06;22.67;;;6.77;;
45316;SDS011;31053;55.870;37.592;2023-11-19T00:27:12;13.65;;;5.85;;
45316;SDS011;31053;55.870;37.592;2023-11-19T00:30:16;20.00;;;7.18;;
45316;SDS011;31053;55.870;37.592;2023-11-19T00:33:21;28.48;;;6.47;;
45316;SDS011;31053;55.870;37.592;2023-11-19T00:36:26;17.67;;;5.13;;
45316;SDS011;31053;55.870;37.592;2023-11-19T00:39:31;15.13;;;5.20;;
45316;SDS011;31053;55.870;37.592;2023-11-19T00:42:36;26.90;;;6.70;;
45316;SDS011;31053;55.870;37.592;2023-11-19T00:45:40;15.75;;;6.05;;
45316;SDS011;31053;55.870;37.592;2023-11-19T00:48:45;21.23;;;7.05;;
45316;SDS011;31053;55.870;37.592;2023-11-19T00:51:51;17.73;;;5.82;;
45316;SDS011;31053;55.870;37.592;2023-11-19T00:54:56;21.25;;;8.30;;
45316;SDS011;31053;55.870;37.592;2023-11-19T00:58:01;27.27;;;8.23;;
45316;SDS011;31053;55.870;37.592;2023-11-19T01:01:05;22.63;;;8.02;;
45316;SDS011;31053;55.870;37.592;2023-11-19T01:04:10;24.42;;;9.50;;
45316;SDS011;31053;55.870;37.592;2023-11-19T01:07:15;26.73;;;9.48;;
45316;SDS011;31053;55.870;37.592;2023-11-19T01:10:20;19.45;;;8.23;;
45316;SDS011;31053;55.870;37.592;2023-11-19T01:13:24;16.73;;;6.50;;
45316;SDS011;31053;55.870;37.592;2023-11-19T01:16:29;13.85;;;6.20;;
45316;SDS011;31053;55.870;37.592;2023-11-19T01:19:35;18.15;;;7.30;;
45316;SDS011;31053;55.870;37.592;2023-11-19T01:22:39;22.58;;;7.53;;
45316;SDS011;31053;55.870;37.592;2023-11-19T01:25:44;16.85;;;7.03;;
45316;SDS011;31053;55.870;37.592;2023-11-19T01:28:49;16.48;;;6.75;;
45316;SDS011;31053;55.870;37.592;2023-11-19T01:31:56;19.48;;;6.55;;
45316;SDS011;31053;55.870;37.592;2023-11-19T01:35:01;31.90;;;10.52;;
45316;SDS011;31053;55.870;37.592;2023-11-19T01:38:08;25.60;;;7.55;;
45316;SDS011;31053;55.870;37.592;2023-11-19T01:41:15;20.60;;;7.32;;
45316;SDS011;31053;55.870;37.592;2023-11-19T01:44:20;18.77;;;7.15;;
45316;SDS011;31053;55.870;37.592;2023-11-19T01:47:26;17.95;;;7.03;;
45316;SDS011;31053;55.870;37.592;2023-11-19T01:50:31;21.00;;;8.43;;
45316;SDS011;31053;55.870;37.592;2023-11-19T01:53:36;17.98;;;7.75;;
45316;SDS011;31053;55.870;37.592;2023-11-19T01:56:42;13.30;;;6.38;;
45316;SDS011;31053;55.870;37.592;2023-11-19T01:59:48;21.23;;;9.25;;
45316;SDS011;31053;55.870;37.592;2023-11-19T02:02:55;27.33;;;8.25;;
45316;SDS011;31053;55.870;37.592;2023-11-19T02:06:00;15.60;;;6.15;;
45316;SDS011;31053;55.870;37.592;2023-11-19T02:09:05;19.70;;;8.43;;
45316;SDS011;31053;55.870;37.592;2023-11-19T02:12:12;16.88;;;6.35;;
45316;SDS011;31053;55.870;37.592;2023-11-19T02:15:17;9.65;;;4.95;;
45316;SDS011;31053;55.870;37.592;2023-11-19T02:18:30;13.73;;;6.35;;
45316;SDS011;31053;55.870;37.592;2023-11-19T02:21:38;18.27;;;5.90;;
45316;SDS011;31053;55.870;37.592;2023-11-19T02:24:43;8.45;;;4.03;;
45316;SDS011;31053;55.870;37.592;2023-11-19T02:27:55;13.48;;;5.45;;
45316;SDS011;31053;55.870;37.592;2023-11-19T02:31:04;17.83;;;5.43;;
45316;SDS011;31053;55.870;37.592;2023-11-19T02:34:10;16.50;;;6.33;;
45316;SDS011;31053;55.870;37.592;2023-11-19T02:37:16;14.73;;;5.03;;
45316;SDS011;31053;55.870;37.592;2023-11-19T02:40:23;11.57;;;4.25;;
45316;SDS011;31053;55.870;37.592;2023-11-19T02:43:28;19.83;;;6.10;;
45316;SDS011;31053;55.870;37.592;2023-11-19T02:46:35;11.00;;;4.13;;
45316;SDS011;31053;55.870;37.592;2023-11-19T02:49:39;13.38;;;5.57;;
45316;SDS011;31053;55.870;37.592;2023-11-19T02:52:44;14.45;;;4.93;;
45316;SDS011;31053;55.870;37.592;2023-11-19T02:55:50;13.38;;;6.10;;
45316;SDS011;31053;55.870;37.592;2023-11-19T02:58:55;16.33;;;4.93;;
45316;SDS011;31053;55.870;37.592;2023-11-19T03:02:00;13.02;;;5.68;;
45316;SDS011;31053;55.870;37.592;2023-11-19T03:05:04;10.30;;;4.78;;
45316;SDS011;31053;55.870;37.592;2023-11-19T03:08:09;14.45;;;5.28;;
45316;SDS011;31053;55.870;37.592;2023-11-19T03:11:15;13.30;;;6.10;;
45316;SDS011;31053;55.870;37.592;2023-11-19T03:14:20;14.43;;;6.68;;
45316;SDS011;31053;55.870;37.592;2023-11-19T03:17:26;10.57;;;5.20;;
45316;SDS011;31053;55.870;37.592;2023-11-19T03:20:30;12.52;;;3.78;;
45316;SDS011;31053;55.870;37.592;2023-11-19T03:23:35;16.05;;;6.13;;
45316;SDS011;31053;55.870;37.592;2023-11-19T03:26:42;14.25;;;6.32;;
45316;SDS011;31053;55.870;37.592;2023-11-19T03:29:47;13.47;;;7.03;;
45316;SDS011;31053;55.870;37.592;2023-11-19T03:32:53;14.02;;;6.20;;
45316;SDS011;31053;55.870;37.592;2023-11-19T03:35:58;16.80;;;6.90;;
45316;SDS011;31053;55.870;37.592;2023-11-19T03:39:02;13.10;;;5.53;;
45316;SDS011;31053;55.870;37.592;2023-11-19T03:42:07;11.70;;;4.22;;
45316;SDS011;31053;55.870;37.592;2023-11-19T03:45:12;15.05;;;5.53;;
45316;SDS011;31053;55.870;37.592;2023-11-19T03:48:17;13.93;;;5.38;;
45316;SDS011;31053;55.870;37.592;2023-11-19T03:51:23;10.48;;;4.90;;
45316;SDS011;31053;55.870;37.592;2023-11-19T03:54:28;12.38;;;4.05;;
45316;SDS011;31053;55.870;37.592;2023-11-19T03:57:32;12.10;;;5.05;;
45316;SDS011;31053;55.870;37.592;2023-11-19T04:00:37;15.23;;;6.15;;
45316;SDS011;31053;55.870;37.592;2023-11-19T04:03:42;19.70;;;5.78;;
45316;SDS011;31053;55.870;37.592;2023-11-19T04:06:47;20.50;;;4.93;;
45316;SDS011;31053;55.870;37.592;2023-11-19T04:09:52;9.07;;;4.50;;
45316;SDS011;31053;55.870;37.592;2023-11-19T04:12:57;31.33;;;7.00;;
45316;SDS011;31053;55.870;37.592;2023-11-19T04:16:01;15.40;;;5.88;;
45316;SDS011;31053;55.870;37.592;2023-11-19T04:19:06;15.55;;;6.00;;
45316;SDS011;31053;55.870;37.592;2023-11-19T04:22:11;9.77;;;4.72;;
45316;SDS011;31053;55.870;37.592;2023-11-19T04:25:16;9.65;;;4.50;;
45316;SDS011;31053;55.870;37.592;2023-11-19T04:28:21;10.90;;;4.65;;
45316;SDS011;31053;55.870;37.592;2023-11-19T04:31:29;8.02;;;4.13;;
45316;SDS011;31053;55.870;37.592;2023-11-19T04:34:35;9.63;;;4.07;;
45316;SDS011;31053;55.870;37.592;2023-11-19T04:37:41;15.20;;;4.10;;
45316;SDS011;31053;55.870;37.592;2023-11-19T04:40:46;11.30;;;5.30;;
45316;SDS011;31053;55.870;37.592;2023-11-19T04:43:51;10.27;;;4.60;;
45316;SDS011;31053;55.870;37.592;2023-11-19T04:46:56;11.68;;;3.72;;
45316;SDS011;31053;55.870;37.592;2023-11-19T04:50:01;19.93;;;5.07;;
45316;SDS011;31053;55.870;37.592;2023-11-19T04:53:08;13.27;;;4.40;;
45316;SDS011;31053;55.870;37.592;2023-11-19T04:56:13;19.90;;;5.25;;
45316;SDS011;31053;55.870;37.592;2023-11-19T04:59:19;11.48;;;4.82;;
45316;SDS011;31053;55.870;37.592;2023-11-19T05:02:24;25.30;;;5.78;;
45316;SDS011;31053;55.870;37.592;2023-11-19T05:05:28;11.10;;;5.43;;
45316;SDS011;31053;55.870;37.592;2023-11-19T05:08:33;13.55;;;4.50;;
45316;SDS011;31053;55.870;37.592;2023-11-19T05:11:37;9.07;;;3.90;;
45316;SDS011;31053;55.870;37.592;2023-11-19T05:14:43;10.23;;;5.03;;
45316;SDS011;31053;55.870;37.592;2023-11-19T05:17:53;13.35;;;5.65;;
45316;SDS011;31053;55.870;37.592;2023-11-19T05:20:57;15.70;;;5.75;;
45316;SDS011;31053;55.870;37.592;2023-11-19T05:24:02;13.82;;;5.13;;
45316;SDS011;31053;55.870;37.592;2023-11-19T05:27:10;22.90;;;6.40;;
45316;SDS011;31053;55.870;37.592;2023-11-19T05:30:17;15.90;;;5.43;;
45316;SDS011;31053;55.870;37.592;2023-11-19T05:33:22;18.20;;;6.93;;
45316;SDS011;31053;55.870;37.592;2023-11-19T05:36:26;21.02;;;7.18;;
45316;SDS011;31053;55.870;37.592;2023-11-19T05:39:34;23.25;;;7.95;;
45316;SDS011;31053;55.870;37.592;2023-11-19T05:42:38;16.75;;;6.35;;
45316;SDS011;31053;55.870;37.592;2023-11-19T05:45:43;15.02;;;7.32;;
45316;SDS011;31053;55.870;37.592;2023-11-19T05:48:48;17.00;;;6.53;;
45316;SDS011;31053;55.870;37.592;2023-11-19T05:51:54;27.00;;;6.18;;
45316;SDS011;31053;55.870;37.592;2023-11-19T05:55:00;17.58;;;4.60;;
45316;SDS011;31053;55.870;37.592;2023-11-19T05:58:09;26.33;;;7.63;;
45316;SDS011;31053;55.870;37.592;2023-11-19T06:01:15;19.60;;;9.20;;
45316;SDS011;31053;55.870;37.592;2023-11-19T06:04:20;21.95;;;8.23;;
45316;SDS011;31053;55.870;37.592;2023-11-19T06:07:25;25.10;;;8.88;;
45316;SDS011;31053;55.870;37.592;2023-11-19T06:10:30;31.00;;;9.88;;
45316;SDS011;31053;55.870;37.592;2023-11-19T06:13:37;27.27;;;9.20;;
45316;SDS011;31053;55.870;37.592;2023-11-19T06:16:42;20.13;;;8.70;;
45316;SDS011;31053;55.870;37.592;2023-11-19T06:19:50;20.83;;;7.88;;
45316;SDS011;31053;55.870;37.592;2023-11-19T06:22:56;21.63;;;7.97;;
45316;SDS011;31053;55.870;37.592;2023-11-19T06:26:01;19.42;;;7.38;;
45316;SDS011;31053;55.870;37.592;2023-11-19T06:29:06;25.85;;;9.73;;
45316;SDS011;31053;55.870;37.592;2023-11-19T06:32:11;18.00;;;7.30;;
45316;SDS011;31053;55.870;37.592;2023-11-19T06:35:16;22.35;;;8.82;;
45316;SDS011;31053;55.870;37.592;2023-11-19T06:38:20;25.17;;;7.40;;
45316;SDS011;31053;55.870;37.592;2023-11-19T06:41:27;17.00;;;7.78;;
45316;SDS011;31053;55.870;37.592;2023-11-19T06:44:33;20.02;;;7.80;;
45316;SDS011;31053;55.870;37.592;2023-11-19T06:47:38;35.75;;;10.73;;
45316;SDS011;31053;55.870;37.592;2023-11-19T06:50:43;21.95;;;9.00;;
45316;SDS011;31053;55.870;37.592;2023-11-19T06:53:48;19.23;;;8.55;;
45316;SDS011;31053;55.870;37.592;2023-11-19T06:56:53;14.00;;;6.72;;
45316;SDS011;31053;55.870;37.592;2023-11-19T06:59:58;15.40;;;6.18;;
45316;SDS011;31053;55.870;37.592;2023-11-19T07:03:03;27.83;;;9.95;;
45316;SDS011;31053;55.870;37.592;2023-11-19T07:06:08;17.30;;;6.60;;
45316;SDS011;31053;55.870;37.592;2023-11-19T07:09:14;26.10;;;8.88;;
45316;SDS011;31053;55.870;37.592;2023-11-19T07:12:19;14.07;;;6.63;;
45316;SDS011;31053;55.870;37.592;2023-11-19T07:15:29;26.77;;;7.97;;
45316;SDS011;31053;55.870;37.592;2023-11-19T07:18:34;26.67;;;10.05;;
45316;SDS011;31053;55.870;37.592;2023-11-19T07:21:45;18.60;;;8.30;;
45316;SDS011;31053;55.870;37.592;2023-11-19T07:24:51;28.52;;;10.40;;
45316;SDS011;31053;55.870;37.592;2023-11-19T07:27:59;16.80;;;6.00;;
45316;SDS011;31053;55.870;37.592;2023-11-19T07:31:07;15.80;;;7.90;;
45316;SDS011;31053;55.870;37.592;2023-11-19T07:34:21;15.93;;;7.28;;
45316;SDS011;31053;55.870;37.592;2023-11-19T07:37:26;20.50;;;8.93;;
45316;SDS011;31053;55.870;37.592;2023-11-19T07:40:31;19.35;;;8.32;;
45316;SDS011;31053;55.870;37.592;2023-11-19T07:43:35;12.55;;;6.20;;
45316;SDS011;31053;55.870;37.592;2023-11-19T07:46:40;11.23;;;5.90;;
45316;SDS011;31053;55.870;37.592;2023-11-19T07:49:46;16.65;;;8.63;;
45316;SDS011;31053;55.870;37.592;2023-11-19T07:52:51;17.98;;;8.13;;
45316;SDS011;31053;55.870;37.592;2023-11-19T07:55:56;19.70;;;8.27;;
45316;SDS011;31053;55.870;37.592;2023-11-19T07:59:01;29.27;;;11.93;;
45316;SDS011;31053;55.870;37.592;2023-11-19T08:02:08;25.90;;;12.70;;
45316;SDS011;31053;55.870;37.592;2023-11-19T08:05:13;23.27;;;11.33;;
45316;SDS011;31053;55.870;37.592;2023-11-19T08:08:18;30.40;;;11.52;;
45316;SDS011;31053;55.870;37.592;2023-11-19T08:11:23;35.10;;;12.57;;
45316;SDS011;31053;55.870;37.592;2023-11-19T08:14:28;31.55;;;13.43;;
45316;SDS011;31053;55.870;37.592;2023-11-19T08:17:33;34.05;;;12.50;;
45316;SDS011;31053;55.870;37.592;2023-11-19T08:20:38;28.77;;;10.52;;
45316;SDS011;31053;55.870;37.592;2023-11-19T08:23:43;26.42;;;10.90;;
45316;SDS011;31053;55.870;37.592;2023-11-19T08:26:47;45.88;;;13.77;;
45316;SDS011;31053;55.870;37.592;2023-11-19T08:29:55;40.45;;;11.60;;
45316;SDS011;31053;55.870;37.592;2023-11-19T08:33:03;29.90;;;10.43;;
45316;SDS011;31053;55.870;37.592;2023-11-19T08:36:15;24.92;;;10.75;;
45316;SDS011;31053;55.870;37.592;2023-11-19T08:39:20;19.27;;;8.70;;
45316;SDS011;31053;55.870;37.592;2023-11-19T08:42:27;25.00;;;10.02;;
45316;SDS011;31053;55.870;37.592;2023-11-19T08:45:32;34.75;;;12.38;;
45316;SDS011;31053;55.870;37.592;2023-11-19T08:48:37;24.40;;;8.85;;
45316;SDS011;31053;55.870;37.592;2023-11-19T08:51:42;25.35;;;9.63;;
45316;SDS011;31053;55.870;37.592;2023-11-19T08:54:47;20.58;;;9.07;;
45316;SDS011;31053;55.870;37.592;2023-11-19T08:57:51;30.80;;;9.80;;
45316;SDS011;31053;55.870;37.592;2023-11-19T09:00:57;22.13;;;9.77;;
45316;SDS011;31053;55.870;37.592;2023-11-19T09:04:04;19.55;;;7.35;;
45316;SDS011;31053;55.870;37.592;2023-11-19T09:07:10;31.88;;;12.75;;
45316;SDS011;31053;55.870;37.592;2023-11-19T09:10:14;27.30;;;9.00;;
45316;SDS011;31053;55.870;37.592;2023-11-19T09:13:20;29.45;;;11.00;;
45316;SDS011;31053;55.870;37.592;2023-11-19T09:16:24;27.08;;;10.05;;
45316;SDS011;31053;55.870;37.592;2023-11-19T09:19:31;16.63;;;8.40;;
45316;SDS011;31053;55.870;37.592;2023-11-19T09:22:37;18.83;;;9.57;;
45316;SDS011;31053;55.870;37.592;2023-11-19T09:25:41;34.45;;;11.10;;
45316;SDS011;31053;55.870;37.592;2023-11-19T09:28:46;31.25;;;11.50;;
45316;SDS011;31053;55.870;37.592;2023-11-19T09:31:51;25.17;;;9.55;;
45316;SDS011;31053;55.870;37.592;2023-11-19T09:34:56;16.42;;;8.38;;
45316;SDS011;31053;55.870;37.592;2023-11-19T09:38:01;30.67;;;8.85;;
45316;SDS011;31053;55.870;37.592;2023-11-19T09:41:06;16.60;;;6.22;;
45316;SDS011;31053;55.870;37.592;2023-11-19T09:44:13;30.30;;;12.52;;
45316;SDS011;31053;55.870;37.592;2023-11-19T09:47:18;22.45;;;10.52;;
45316;SDS011;31053;55.870;37.592;2023-11-19T09:50:24;27.10;;;10.10;;
45316;SDS011;31053;55.870;37.592;2023-11-19T09:53:30;19.20;;;9.32;;
45316;SDS011;31053;55.870;37.592;2023-11-19T09:56:36;23.92;;;9.27;;
45316;SDS011;31053;55.870;37.592;2023-11-19T10:02:46;23.20;;;10.10;;
45316;SDS011;31053;55.870;37.592;2023-11-19T10:05:51;20.30;;;9.60;;
45316;SDS011;31053;55.870;37.592;2023-11-19T10:08:55;25.48;;;9.60;;
45316;SDS011;31053;55.870;37.592;2023-11-19T10:12:01;28.03;;;12.57;;
45316;SDS011;31053;55.870;37.592;2023-11-19T10:15:05;28.48;;;11.27;;
45316;SDS011;31053;55.870;37.592;2023-11-19T10:18:11;19.73;;;10.00;;
45316;SDS011;31053;55.870;37.592;2023-11-19T10:21:17;24.05;;;10.90;;
45316;SDS011;31053;55.870;37.592;2023-11-19T10:24:32;22.35;;;11.05;;
45316;SDS011;31053;55.870;37.592;2023-11-19T10:27:42;25.85;;;10.68;;
45316;SDS011;31053;55.870;37.592;2023-11-19T10:30:52;31.08;;;11.85;;
45316;SDS011;31053;55.870;37.592;2023-11-19T10:34:02;19.63;;;9.25;;
45316;SDS011;31053;55.870;37.592;2023-11-19T10:37:08;29.10;;;11.07;;
45316;SDS011;31053;55.870;37.592;2023-11-19T10:40:14;29.60;;;11.40;;
45316;SDS011;31053;55.870;37.592;2023-11-19T10:43:20;34.45;;;11.40;;
45316;SDS011;31053;55.870;37.592;2023-11-19T10:46:39;23.98;;;9.57;;
45316;SDS011;31053;55.870;37.592;2023-11-19T10:49:44;30.65;;;13.32;;
45316;SDS011;31053;55.870;37.592;2023-11-19T10:52:55;29.38;;;12.48;;
45316;SDS011;31053;55.870;37.592;2023-11-19T10:56:06;24.42;;;12.63;;
45316;SDS011;31053;55.870;37.592;2023-11-19T10:59:14;24.73;;;10.88;;
45316;SDS011;31053;55.870;37.592;2023-11-19T11:02:21;16.50;;;9.23;;
45316;SDS011;31053;55.870;37.592;2023-11-19T11:05:31;26.13;;;10.85;;
45316;SDS011;31053;55.870;37.592;2023-11-19T11:08:39;33.95;;;11.98;;
45316;SDS011;31053;55.870;37.592;2023-11-19T11:11:47;23.20;;;11.85;;
45316;SDS011;31053;55.870;37.592;2023-11-19T11:14:52;36.28;;;15.02;;
45316;SDS011;31053;55.870;37.592;2023-11-19T11:17:59;26.13;;;12.98;;
45316;SDS011;31053;55.870;37.592;2023-11-19T11:21:09;32.13;;;13.45;;
45316;SDS011;31053;55.870;37.592;2023-11-19T11:28:23;36.97;;;12.98;;
45316;SDS011;31053;55.870;37.592;2023-11-19T11:34:53;40.65;;;15.82;;
45316;SDS011;31053;55.870;37.592;2023-11-19T11:38:08;28.27;;;11.88;;
45316;SDS011;31053;55.870;37.592;2023-11-19T11:41:17;39.25;;;12.07;;
45316;SDS011;31053;55.870;37.592;2023-11-19T11:45:02;25.08;;;10.57;;
45316;SDS011;31053;55.870;37.592;2023-11-19T11:48:15;37.08;;;12.63;;
45316;SDS011;31053;55.870;37.592;2023-11-19T11:51:23;16.65;;;8.30;;
45316;SDS011;31053;55.870;37.592;2023-11-19T11:54:51;20.15;;;8.95;;
45316;SDS011;31053;55.870;37.592;2023-11-19T11:57:55;23.30;;;10.18;;
45316;SDS011;31053;55.870;37.592;2023-11-19T12:01:00;16.67;;;8.00;;
45316;SDS011;31053;55.870;37.592;2023-11-19T12:07:15;28.08;;;9.85;;
45316;SDS011;31053;55.870;37.592;2023-11-19T12:10:21;27.95;;;9.68;;
45316;SDS011;31053;55.870;37.592;2023-11-19T12:16:55;19.38;;;8.65;;
45316;SDS011;31053;55.870;37.592;2023-11-19T12:20:08;18.45;;;8.77;;
45316;SDS011;31053;55.870;37.592;2023-11-19T12:23:13;14.77;;;7.28;;
45316;SDS011;31053;55.870;37.592;2023-11-19T12:26:34;14.40;;;6.13;;
45316;SDS011;31053;55.870;37.592;2023-11-19T12:29:43;20.77;;;9.35;;
45316;SDS011;31053;55.870;37.592;2023-11-19T12:32:48;14.43;;;6.35;;
45316;SDS011;31053;55.870;37.592;2023-11-19T12:35:54;20.70;;;7.50;;
45316;SDS011;31053;55.870;37.592;2023-11-19T12:38:59;21.38;;;9.07;;
45316;SDS011;31053;55.870;37.592;2023-11-19T12:42:05;20.20;;;8.05;;
45316;SDS011;31053;55.870;37.592;2023-11-19T12:45:10;17.17;;;8.45;;
45316;SDS011;31053;55.870;37.592;2023-11-19T12:48:16;27.30;;;7.47;;
45316;SDS011;31053;55.870;37.592;2023-11-19T12:51:21;20.25;;;7.85;;
45316;SDS011;31053;55.870;37.592;2023-11-19T12:54:35;17.17;;;7.38;;
45316;SDS011;31053;55.870;37.592;2023-11-19T12:57:41;14.85;;;7.00;;
45316;SDS011;31053;55.870;37.592;2023-11-19T13:00:46;14.80;;;6.55;;
45316;SDS011;31053;55.870;37.592;2023-11-19T13:03:51;26.77;;;10.60;;
45316;SDS011;31053;55.870;37.592;2023-11-19T13:06:57;28.10;;;10.40;;
45316;SDS011;31053;55.870;37.592;2023-11-19T13:10:03;16.33;;;7.88;;
45316;SDS011;31053;55.870;37.592;2023-11-19T13:13:09;21.10;;;8.85;;
45316;SDS011;31053;55.870;37.592;2023-11-19T13:16:13;16.05;;;6.75;;
45316;SDS011;31053;55.870;37.592;2023-11-19T13:19:20;18.15;;;6.45;;
45316;SDS011;31053;55.870;37.592;2023-11-19T13:22:24;22.55;;;8.57;;
45316;SDS011;31053;55.870;37.592;2023-11-19T13:25:29;18.25;;;7.10;;
45316;SDS011;31053;55.870;37.592;2023-11-19T13:28:35;23.60;;;8.43;;
45316;SDS011;31053;55.870;37.592;2023-11-19T13:31:39;17.17;;;6.85;;
45316;SDS011;31053;55.870;37.592;2023-11-19T13:34:45;22.33;;;8.68;;
45316;SDS011;31053;55.870;37.592;2023-11-19T13:37:49;18.75;;;6.93;;
45316;SDS011;31053;55.870;37.592;2023-11-19T13:40:56;19.88;;;9.23;;
45316;SDS011;31053;55.870;37.592;2023-11-19T13:44:01;13.95;;;6.40;;
45316;SDS011;31053;55.870;37.592;2023-11-19T13:47:06;31.67;;;8.55;;
45316;SDS011;31053;55.870;37.592;2023-11-19T13:50:12;22.02;;;7.30;;
45316;SDS011;31053;55.870;37.592;2023-11-19T13:53:18;15.85;;;7.90;;
45316;SDS011;31053;55.870;37.592;2023-11-19T13:56:24;18.17;;;7.15;;
45316;SDS011;31053;55.870;37.592;2023-11-19T13:59:29;17.85;;;6.35;;
45316;SDS011;31053;55.870;37.592;2023-11-19T14:02:36;15.10;;;6.70;;
45316;SDS011;31053;55.870;37.592;2023-11-19T14:05:41;14.15;;;5.45;;
45316;SDS011;31053;55.870;37.592;2023-11-19T14:08:46;27.67;;;8.68;;
45316;SDS011;31053;55.870;37.592;2023-11-19T14:11:51;27.55;;;7.80;;
45316;SDS011;31053;55.870;37.592;2023-11-19T14:14:56;14.13;;;5.80;;
45316;SDS011;31053;55.870;37.592;2023-11-19T14:18:00;17.63;;;7.45;;
45316;SDS011;31053;55.870;37.592;2023-11-19T14:21:06;39.25;;;8.70;;
45316;SDS011;31053;55.870;37.592;2023-11-19T14:24:11;10.55;;;5.00;;
45316;SDS011;31053;55.870;37.592;2023-11-19T14:27:15;24.10;;;8.43;;
45316;SDS011;31053;55.870;37.592;2023-11-19T14:30:24;19.38;;;6.00;;
45316;SDS011;31053;55.870;37.592;2023-11-19T14:33:28;26.80;;;7.85;;
45316;SDS011;31053;55.870;37.592;2023-11-19T14:36:33;23.65;;;7.53;;
45316;SDS011;31053;55.870;37.592;2023-11-19T14:39:38;28.17;;;7.47;;
45316;SDS011;31053;55.870;37.592;2023-11-19T14:42:43;19.73;;;6.60;;
45316;SDS011;31053;55.870;37.592;2023-11-19T14:45:47;23.73;;;8.93;;
45316;SDS011;31053;55.870;37.592;2023-11-19T14:48:52;18.63;;;7.93;;
45316;SDS011;31053;55.870;37.592;2023-11-19T14:51:58;16.58;;;6.22;;
45316;SDS011;31053;55.870;37.592;2023-11-19T14:55:03;18.92;;;7.20;;
45316;SDS011;31053;55.870;37.592;2023-11-19T14:58:09;15.23;;;7.18;;
45316;SDS011;31053;55.870;37.592;2023-11-19T15:01:14;19.10;;;9.05;;
45316;SDS011;31053;55.870;37.592;2023-11-19T15:04:19;22.23;;;8.13;;
45316;SDS011;31053;55.870;37.592;2023-11-19T15:07:24;18.25;;;6.78;;
45316;SDS011;31053;55.870;37.592;2023-11-19T15:10:28;14.85;;;6.53;;
45316;SDS011;31053;55.870;37.592;2023-11-19T15:13:33;21.10;;;9.30;;
45316;SDS011;31053;55.870;37.592;2023-11-19T15:16:39;14.48;;;7.22;;
45316;SDS011;31053;55.870;37.592;2023-11-19T15:19:46;17.83;;;7.72;;
45316;SDS011;31053;55.870;37.592;2023-11-19T15:22:54;25.42;;;11.10;;
45316;SDS011;31053;55.870;37.592;2023-11-19T15:25:59;16.10;;;7.05;;
45316;SDS011;31053;55.870;37.592;2023-11-19T15:29:04;21.95;;;8.95;;
45316;SDS011;31053;55.870;37.592;2023-11-19T15:32:10;19.10;;;8.90;;
45316;SDS011;31053;55.870;37.592;2023-11-19T15:35:15;23.30;;;9.30;;
45316;SDS011;31053;55.870;37.592;2023-11-19T15:38:20;28.35;;;9.70;;
45316;SDS011;31053;55.870;37.592;2023-11-19T15:41:25;21.25;;;7.53;;
45316;SDS011;31053;55.870;37.592;2023-11-19T15:44:32;21.10;;;9.48;;
45316;SDS011;31053;55.870;37.592;2023-11-19T15:47:37;22.65;;;8.38;;
45316;SDS011;31053;55.870;37.592;2023-11-19T15:50:42;27.15;;;8.45;;
45316;SDS011;31053;55.870;37.592;2023-11-19T15:53:48;25.15;;;7.78;;
45316;SDS011;31053;55.870;37.592;2023-11-19T15:56:53;25.60;;;9.82;;
45316;SDS011;31053;55.870;37.592;2023-11-19T15:59:58;17.42;;;8.57;;
45316;SDS011;31053;55.870;37.592;2023-11-19T16:03:03;23.17;;;10.32;;
45316;SDS011;31053;55.870;37.592;2023-11-19T16:06:08;24.80;;;9.10;;
45316;SDS011;31053;55.870;37.592;2023-11-19T16:09:15;15.52;;;7.60;;
45316;SDS011;31053;55.870;37.592;2023-11-19T16:12:23;21.13;;;9.35;;
45316;SDS011;31053;55.870;37.592;2023-11-19T16:15:27;18.02;;;8.75;;
45316;SDS011;31053;55.870;37.592;2023-11-19T16:18:34;17.20;;;7.95;;
45316;SDS011;31053;55.870;37.592;2023-11-19T16:21:39;18.60;;;8.32;;
45316;SDS011;31053;55.870;37.592;2023-11-19T16:24:44;20.65;;;9.48;;
45316;SDS011;31053;55.870;37.592;2023-11-19T16:27:49;21.98;;;10.00;;
45316;SDS011;31053;55.870;37.592;2023-11-19T16:30:55;22.67;;;8.88;;
45316;SDS011;31053;55.870;37.592;2023-11-19T16:34:02;22.10;;;9.05;;
45316;SDS011;31053;55.870;37.592;2023-11-19T16:37:09;30.13;;;10.05;;
45316;SDS011;31053;55.870;37.592;2023-11-19T16:40:14;30.17;;;9.32;;
45316;SDS011;31053;55.870;37.592;2023-11-19T16:43:19;17.52;;;7.85;;
45316;SDS011;31053;55.870;37.592;2023-11-19T16:46:24;23.50;;;10.10;;
45316;SDS011;31053;55.870;37.592;2023-11-19T16:49:31;24.45;;;11.00;;
45316;SDS011;31053;55.870;37.592;2023-11-19T16:52:36;25.05;;;11.25;;
45316;SDS011;31053;55.870;37.592;2023-11-19T16:55:41;25.55;;;10.48;;
45316;SDS011;31053;55.870;37.592;2023-11-19T16:58:46;26.90;;;11.73;;
45316;SDS011;31053;55.870;37.592;2023-11-19T17:01:51;27.00;;;11.75;;
45316;SDS011;31053;55.870;37.592;2023-11-19T17:04:56;25.90;;;11.23;;
45316;SDS011;31053;55.870;37.592;2023-11-19T17:08:00;29.45;;;11.45;;
45316;SDS011;31053;55.870;37.592;2023-11-19T17:11:05;24.45;;;10.63;;
45316;SDS011;31053;55.870;37.592;2023-11-19T17:14:10;27.30;;;10.60;;
45316;SDS011;31053;55.870;37.592;2023-11-19T17:17:15;39.15;;;14.23;;
45316;SDS011;31053;55.870;37.592;2023-11-19T17:20:20;26.98;;;10.30;;
45316;SDS011;31053;55.870;37.592;2023-11-19T17:23:26;35.70;;;14.13;;
45316;SDS011;31053;55.870;37.592;2023-11-19T17:26:31;30.25;;;12.15;;
45316;SDS011;31053;55.870;37.592;2023-11-19T17:29:38;26.48;;;11.82;;
45316;SDS011;31053;55.870;37.592;2023-11-19T17:32:43;34.67;;;14.35;;
45316;SDS011;31053;55.870;37.592;2023-11-19T17:35:49;29.95;;;11.30;;
45316;SDS011;31053;55.870;37.592;2023-11-19T17:38:54;30.63;;;13.02;;
45316;SDS011;31053;55.870;37.592;2023-11-19T17:41:59;34.03;;;14.10;;
45316;SDS011;31053;55.870;37.592;2023-11-19T17:45:04;21.27;;;9.00;;
45316;SDS011;31053;55.870;37.592;2023-11-19T17:48:09;29.80;;;12.55;;
45316;SDS011;31053;55.870;37.592;2023-11-19T17:51:15;24.10;;;9.95;;
45316;SDS011;31053;55.870;37.592;2023-11-19T17:54:21;33.30;;;12.77;;
45316;SDS011;31053;55.870;37.592;2023-11-19T17:57:26;40.17;;;16.13;;
45316;SDS011;31053;55.870;37.592;2023-11-19T18:00:31;33.55;;;15.00;;
45316;SDS011;31053;55.870;37.592;2023-11-19T18:03:36;47.83;;;16.52;;
45316;SDS011;31053;55.870;37.592;2023-11-19T18:06:41;38.65;;;16.67;;
45316;SDS011;31053;55.870;37.592;2023-11-19T18:09:48;29.98;;;12.85;;
45316;SDS011;31053;55.870;37.592;2023-11-19T18:12:52;43.70;;;16.23;;
45316;SDS011;31053;55.870;37.592;2023-11-19T18:15:57;42.95;;;16.77;;
45316;SDS011;31053;55.870;37.592;2023-11-19T18:19:02;43.95;;;16.77;;
45316;SDS011;31053;55.870;37.592;2023-11-19T18:22:15;47.22;;;16.75;;